Time;durP1;ratioP1;P1;durP2;ratioP2;P2;SDS_P1;SDS_P2;PMS_P1;PMS_P2;Temp;Humidity;BMP_temperature;BMP_pressure;BME280_temperature;BME280_humidity;BME280_pressure;Samples;Min_cycle;Max_cycle;Signal;HPM_P1;HPM_P2
2021/05/09 00:00:17;;;;;;;12.45;5.93;;;;;;;;;;5049945;28;20036;-75
2021/05/09 00:02:43;;;;;;;13.85;5.80;;;;;;;;;;5022630;28;20040;-75
2021/05/09 00:05:10;;;;;;;11.52;5.35;;;;;;;;;;5043914;28;20025;-75
2021/05/09 00:07:36;;;;;;;10.50;5.28;;;;;;;;;;5052330;28;20456;-76
2021/05/09 00:10:04;;;;;;;12.27;5.82;;;;;;;;;;5030773;28;20022;-75
2021/05/09 00:12:30;;;;;;;12.00;5.35;;;;;;;;;;5032577;28;20389;-76
2021/05/09 00:14:56;;;;;;;11.85;5.50;;;;;;;;;;5051673;28;20413;-75
2021/05/09 00:17:22;;;;;;;11.45;5.55;;;;;;;;;;5052634;28;20052;-76
2021/05/09 00:19:48;;;;;;;14.32;5.57;;;;;;;;;;5053438;28;20021;-76
2021/05/09 00:22:14;;;;;;;13.55;5.70;;;;;;;;;;5036826;28;20025;-76
2021/05/09 00:24:40;;;;;;;10.98;5.05;;;;;;;;;;5036946;28;20022;-74
2021/05/09 00:27:07;;;;;;;12.80;5.40;;;;;;;;;;5059199;28;20032;-75
2021/05/09 00:29:33;;;;;;;14.20;5.57;;;;;;;;;;5058533;28;20029;-76
2021/05/09 00:31:59;;;;;;;14.95;5.97;;;;;;;;;;5067961;28;20025;-76
2021/05/09 00:34:27;;;;;;;11.75;5.25;;;;;;;;;;5057745;28;20025;-77
2021/05/09 00:36:53;;;;;;;17.45;5.85;;;;;;;;;;5048310;28;20028;-74
2021/05/09 00:39:20;;;;;;;16.50;5.78;;;;;;;;;;5045543;28;20033;-75
2021/05/09 00:41:46;;;;;;;16.27;5.70;;;;;;;;;;5059569;28;20021;-76
2021/05/09 00:44:12;;;;;;;14.43;5.38;;;;;;;;;;5067128;28;20080;-76
2021/05/09 00:46:38;;;;;;;15.73;6.05;;;;;;;;;;5061014;28;20037;-75
2021/05/09 00:49:06;;;;;;;18.00;5.80;;;;;;;;;;5059006;28;20084;-75
2021/05/09 00:51:40;;;;;;;18.30;6.38;;;;;;;;;;5060955;28;20033;-74
2021/05/09 00:54:08;;;;;;;18.25;6.07;;;;;;;;;;5059416;28;20080;-76
2021/05/09 00:56:34;;;;;;;19.40;6.45;;;;;;;;;;5036483;28;20025;-76
2021/05/09 00:59:01;;;;;;;15.65;6.03;;;;;;;;;;5048338;28;20030;-76
2021/05/09 01:01:28;;;;;;;22.25;5.88;;;;;;;;;;5063578;28;20089;-76
2021/05/09 01:03:54;;;;;;;19.38;6.15;;;;;;;;;;5059611;28;20021;-76
2021/05/09 01:06:26;;;;;;;19.40;6.95;;;;;;;;;;5059415;28;20100;-75
2021/05/09 01:08:53;;;;;;;24.30;6.70;;;;;;;;;;5050428;28;20053;-76
2021/05/09 01:11:19;;;;;;;31.98;6.93;;;;;;;;;;5058666;28;20088;-76
2021/05/09 01:13:46;;;;;;;28.15;6.15;;;;;;;;;;5063005;28;20029;-76
2021/05/09 01:16:12;;;;;;;17.92;6.38;;;;;;;;;;5062096;28;20017;-75
2021/05/09 01:18:38;;;;;;;19.13;5.97;;;;;;;;;;5049132;28;20057;-76
2021/05/09 01:21:05;;;;;;;17.02;6.07;;;;;;;;;;5066381;28;20025;-76
2021/05/09 01:23:31;;;;;;;18.83;6.00;;;;;;;;;;5068328;28;20013;-76
2021/05/09 01:26:00;;;;;;;17.90;5.88;;;;;;;;;;5056635;28;20033;-76
2021/05/09 01:28:28;;;;;;;17.20;6.53;;;;;;;;;;5060958;28;20028;-76
2021/05/09 01:30:54;;;;;;;21.40;7.32;;;;;;;;;;5060715;28;20036;-76
2021/05/09 01:33:20;;;;;;;21.33;7.50;;;;;;;;;;5058223;28;20032;-76
2021/05/09 01:35:47;;;;;;;22.67;7.47;;;;;;;;;;5046108;28;20024;-76
2021/05/09 01:38:13;;;;;;;19.90;7.25;;;;;;;;;;5031879;28;20093;-75
2021/05/09 01:40:41;;;;;;;19.77;7.40;;;;;;;;;;5048053;28;20033;-76
2021/05/09 01:43:08;;;;;;;21.55;6.72;;;;;;;;;;5068168;28;20032;-75
2021/05/09 01:45:34;;;;;;;18.85;7.07;;;;;;;;;;5054302;28;20057;-76
2021/05/09 01:48:01;;;;;;;17.42;6.50;;;;;;;;;;5059704;28;20076;-74
2021/05/09 01:50:27;;;;;;;19.88;6.53;;;;;;;;;;5044113;28;20025;-76
2021/05/09 01:52:54;;;;;;;18.45;6.60;;;;;;;;;;5033168;28;20025;-75
2021/05/09 01:55:22;;;;;;;18.00;6.95;;;;;;;;;;5063479;28;20120;-74
2021/05/09 01:57:53;;;;;;;16.35;6.57;;;;;;;;;;5065217;28;20083;-74
2021/05/09 02:00:20;;;;;;;13.55;6.07;;;;;;;;;;5055373;28;20061;-74
2021/05/09 02:02:47;;;;;;;12.88;6.28;;;;;;;;;;5065842;28;20478;-76
2021/05/09 02:05:13;;;;;;;16.52;6.50;;;;;;;;;;5055187;28;20059;-76
2021/05/09 02:07:39;;;;;;;17.13;6.90;;;;;;;;;;5063565;28;20114;-75
2021/05/09 02:10:09;;;;;;;13.23;6.93;;;;;;;;;;5059357;28;20036;-76
2021/05/09 02:12:38;;;;;;;12.77;6.30;;;;;;;;;;5064526;28;20025;-75
2021/05/09 02:15:05;;;;;;;12.63;6.22;;;;;;;;;;5062205;28;20025;-75
2021/05/09 02:17:31;;;;;;;13.07;6.75;;;;;;;;;;5064963;28;20028;-76
2021/05/09 02:19:57;;;;;;;15.50;6.72;;;;;;;;;;5043470;28;20037;-74
2021/05/09 02:22:24;;;;;;;13.25;6.35;;;;;;;;;;5060685;28;20460;-76
2021/05/09 02:24:50;;;;;;;16.00;7.22;;;;;;;;;;5055882;28;20029;-76
2021/05/09 02:27:16;;;;;;;13.57;6.25;;;;;;;;;;5065822;28;20025;-75
2021/05/09 02:29:42;;;;;;;14.77;6.43;;;;;;;;;;5062443;28;20470;-74
2021/05/09 02:32:11;;;;;;;12.65;6.63;;;;;;;;;;5062055;28;20036;-75
2021/05/09 02:34:37;;;;;;;11.93;5.97;;;;;;;;;;5054801;28;20016;-75
2021/05/09 02:37:04;;;;;;;13.35;6.40;;;;;;;;;;5060790;28;20025;-76
2021/05/09 02:39:30;;;;;;;13.57;6.15;;;;;;;;;;5060229;28;20033;-76
2021/05/09 02:41:56;;;;;;;12.20;6.38;;;;;;;;;;5054762;28;20391;-76
2021/05/09 02:44:22;;;;;;;11.93;5.90;;;;;;;;;;5057892;28;20104;-76
2021/05/09 02:46:52;;;;;;;30.52;6.70;;;;;;;;;;5064085;28;20038;-77
2021/05/09 02:49:18;;;;;;;13.57;6.60;;;;;;;;;;5058535;28;20033;-77
2021/05/09 02:51:44;;;;;;;18.30;6.18;;;;;;;;;;5065869;28;20422;-76
2021/05/09 02:54:13;;;;;;;14.57;6.30;;;;;;;;;;5067980;28;20028;-75
2021/05/09 02:56:41;;;;;;;13.05;6.05;;;;;;;;;;5062596;28;20026;-76
2021/05/09 02:59:07;;;;;;;15.68;6.05;;;;;;;;;;5044191;28;20052;-75
2021/05/09 03:01:34;;;;;;;14.00;6.38;;;;;;;;;;5055934;28;20036;-75
2021/05/09 03:04:00;;;;;;;13.55;6.32;;;;;;;;;;5052621;28;20029;-75
2021/05/09 03:06:26;;;;;;;13.63;6.10;;;;;;;;;;5057226;28;20033;-76
2021/05/09 03:08:52;;;;;;;13.43;5.95;;;;;;;;;;5037096;28;20041;-75
2021/05/09 03:11:26;;;;;;;16.77;6.25;;;;;;;;;;5052071;28;20100;-76
2021/05/09 03:13:52;;;;;;;14.88;5.53;;;;;;;;;;5049624;28;20017;-76
2021/05/09 03:16:19;;;;;;;12.30;5.97;;;;;;;;;;5054066;28;20029;-75
2021/05/09 03:18:47;;;;;;;18.70;7.22;;;;;;;;;;5044228;28;20107;-75
2021/05/09 03:21:14;;;;;;;13.93;6.07;;;;;;;;;;5057178;28;20017;-75
2021/05/09 03:23:40;;;;;;;19.02;6.82;;;;;;;;;;5052693;28;20467;-75
2021/05/09 03:26:06;;;;;;;13.60;6.15;;;;;;;;;;5054655;28;20040;-75
2021/05/09 03:28:32;;;;;;;14.63;7.20;;;;;;;;;;5057354;28;20478;-76
2021/05/09 03:30:58;;;;;;;14.88;7.07;;;;;;;;;;5059735;28;20032;-75
2021/05/09 03:33:24;;;;;;;17.02;7.22;;;;;;;;;;5051860;28;20025;-74
2021/05/09 03:35:51;;;;;;;14.95;7.13;;;;;;;;;;5051213;28;20025;-76
2021/05/09 03:38:17;;;;;;;17.23;7.15;;;;;;;;;;5048046;28;20501;-76
2021/05/09 03:40:43;;;;;;;16.55;7.95;;;;;;;;;;5052757;28;20173;-75
2021/05/09 03:43:09;;;;;;;17.00;8.38;;;;;;;;;;5047906;28;20021;-75
2021/05/09 03:45:35;;;;;;;15.68;7.72;;;;;;;;;;5049035;28;20498;-75
2021/05/09 03:48:01;;;;;;;15.70;7.63;;;;;;;;;;5046621;28;20426;-75
2021/05/09 03:50:27;;;;;;;14.23;6.75;;;;;;;;;;5036489;28;20892;-75
2021/05/09 03:52:53;;;;;;;15.68;7.40;;;;;;;;;;5050981;28;20017;-74
2021/05/09 03:55:19;;;;;;;12.10;6.43;;;;;;;;;;5044840;28;20048;-75
2021/05/09 03:57:46;;;;;;;11.60;6.05;;;;;;;;;;5052462;28;20045;-75
2021/05/09 04:00:12;;;;;;;15.27;6.40;;;;;;;;;;5054536;28;20025;-75
2021/05/09 04:02:39;;;;;;;13.38;6.03;;;;;;;;;;5046439;28;20040;-74
2021/05/09 04:05:06;;;;;;;15.30;5.90;;;;;;;;;;5050496;28;20025;-75
2021/05/09 04:07:34;;;;;;;15.88;5.90;;;;;;;;;;5054434;28;20045;-75
2021/05/09 04:10:02;;;;;;;13.38;5.53;;;;;;;;;;5049061;28;20025;-75
2021/05/09 04:12:28;;;;;;;15.90;5.85;;;;;;;;;;5051845;28;20032;-74
2021/05/09 04:14:54;;;;;;;12.77;5.38;;;;;;;;;;5029175;28;20506;-76
2021/05/09 04:17:20;;;;;;;14.15;6.03;;;;;;;;;;5044294;28;20475;-75
2021/05/09 04:19:46;;;;;;;13.10;5.90;;;;;;;;;;5037958;28;20028;-76
2021/05/09 04:22:12;;;;;;;15.43;5.78;;;;;;;;;;5058371;28;20481;-75
2021/05/09 04:24:38;;;;;;;14.77;5.50;;;;;;;;;;5043888;28;20105;-75
2021/05/09 04:27:04;;;;;;;15.13;5.10;;;;;;;;;;5047138;28;20037;-75
2021/05/09 04:29:30;;;;;;;13.57;5.70;;;;;;;;;;5045325;28;20060;-76
2021/05/09 04:31:56;;;;;;;14.52;5.38;;;;;;;;;;5062344;28;20059;-76
2021/05/09 04:34:23;;;;;;;12.63;5.70;;;;;;;;;;5037479;28;20640;-75
2021/05/09 04:36:51;;;;;;;15.75;5.65;;;;;;;;;;5036736;28;20027;-74
2021/05/09 04:39:17;;;;;;;13.77;5.70;;;;;;;;;;5064090;28;20071;-76
2021/05/09 04:41:43;;;;;;;11.48;5.18;;;;;;;;;;5054035;28;20022;-76
2021/05/09 04:44:09;;;;;;;12.27;5.18;;;;;;;;;;5063608;28;20026;-75
2021/05/09 04:46:37;;;;;;;16.15;5.35;;;;;;;;;;5055116;28;20032;-76
2021/05/09 04:49:03;;;;;;;16.45;5.55;;;;;;;;;;5058368;28;20027;-75
2021/05/09 04:51:29;;;;;;;14.13;4.60;;;;;;;;;;5057466;28;20032;-75
2021/05/09 04:53:55;;;;;;;17.67;5.20;;;;;;;;;;5053422;28;20437;-75
2021/05/09 04:56:21;;;;;;;14.77;5.35;;;;;;;;;;5063403;28;20036;-75
2021/05/09 04:58:51;;;;;;;15.77;5.82;;;;;;;;;;5064436;28;20029;-76
2021/05/09 05:01:17;;;;;;;18.55;5.57;;;;;;;;;;5050628;28;20033;-72
2021/05/09 05:03:48;;;;;;;16.38;5.30;;;;;;;;;;5051298;28;20533;-73
2021/05/09 05:06:15;;;;;;;11.63;4.97;;;;;;;;;;5033201;28;20048;-74
2021/05/09 05:08:41;;;;;;;14.35;5.22;;;;;;;;;;5049869;28;20771;-75
2021/05/09 05:11:07;;;;;;;15.88;5.63;;;;;;;;;;5049457;28;20017;-74
2021/05/09 05:13:35;;;;;;;16.88;5.90;;;;;;;;;;5054436;28;20025;-74
2021/05/09 05:16:02;;;;;;;13.77;5.25;;;;;;;;;;5056080;28;20052;-75
2021/05/09 05:18:29;;;;;;;14.75;5.53;;;;;;;;;;5056148;28;20485;-76
2021/05/09 05:20:57;;;;;;;14.13;5.30;;;;;;;;;;5060001;28;20029;-74
2021/05/09 05:23:23;;;;;;;16.00;5.32;;;;;;;;;;5054068;28;20033;-76
2021/05/09 05:25:50;;;;;;;15.77;5.88;;;;;;;;;;5052676;28;20040;-75
2021/05/09 05:28:16;;;;;;;20.20;5.97;;;;;;;;;;5059703;28;20024;-73
2021/05/09 05:30:44;;;;;;;14.82;6.28;;;;;;;;;;5057603;28;20037;-74
2021/05/09 05:33:24;;;;;;;12.88;5.70;;;;;;;;;;5058924;28;20025;-74
2021/05/09 05:35:52;;;;;;;15.45;5.90;;;;;;;;;;5042646;28;20053;-77
2021/05/09 05:38:18;;;;;;;16.52;6.97;;;;;;;;;;5040360;28;20037;-71
2021/05/09 05:40:44;;;;;;;14.60;6.80;;;;;;;;;;5053409;28;20033;-72
2021/05/09 05:43:11;;;;;;;17.15;6.30;;;;;;;;;;5053075;28;20040;-72
2021/05/09 05:45:37;;;;;;;16.80;6.70;;;;;;;;;;5051135;28;20033;-71
2021/05/09 05:48:03;;;;;;;16.08;8.20;;;;;;;;;;5053583;28;20067;-71
2021/05/09 05:50:29;;;;;;;34.75;18.55;;;;;;;;;;5051924;28;20020;-72
2021/05/09 05:52:55;;;;;;;17.70;7.32;;;;;;;;;;5050459;28;20038;-71
2021/05/09 05:55:21;;;;;;;14.93;6.65;;;;;;;;;;5059605;28;20143;-73
2021/05/09 05:57:48;;;;;;;16.95;6.85;;;;;;;;;;5041849;28;20037;-74
2021/05/09 06:00:14;;;;;;;16.98;7.18;;;;;;;;;;5059410;28;20025;-75
2021/05/09 06:02:40;;;;;;;17.17;7.47;;;;;;;;;;5031341;28;20032;-74
2021/05/09 06:05:06;;;;;;;14.57;7.35;;;;;;;;;;5053607;28;20029;-76
2021/05/09 06:07:32;;;;;;;19.70;8.23;;;;;;;;;;5024942;28;20399;-72
2021/05/09 06:09:58;;;;;;;15.40;7.30;;;;;;;;;;5048744;28;20025;-73
2021/05/09 06:12:24;;;;;;;17.67;7.65;;;;;;;;;;5053240;28;20018;-75
2021/05/09 06:14:50;;;;;;;14.25;7.15;;;;;;;;;;5055797;28;20167;-73
2021/05/09 06:17:16;;;;;;;17.67;7.53;;;;;;;;;;5050302;28;20025;-77
2021/05/09 06:19:42;;;;;;;17.00;6.80;;;;;;;;;;5053655;28;20029;-76
2021/05/09 06:22:09;;;;;;;15.70;6.25;;;;;;;;;;5047661;28;20040;-77
2021/05/09 06:24:35;;;;;;;15.25;5.32;;;;;;;;;;5045950;28;20029;-74
2021/05/09 06:27:01;;;;;;;11.65;5.15;;;;;;;;;;5056127;28;20027;-76
2021/05/09 06:29:27;;;;;;;9.57;4.53;;;;;;;;;;5053111;28;20048;-74
2021/05/09 06:31:53;;;;;;;10.75;5.18;;;;;;;;;;5054341;28;20029;-76
2021/05/09 06:34:19;;;;;;;12.20;5.43;;;;;;;;;;5057369;28;20025;-76
2021/05/09 06:36:45;;;;;;;12.98;4.95;;;;;;;;;;5059313;28;20037;-76
2021/05/09 06:39:12;;;;;;;9.35;4.60;;;;;;;;;;5065754;28;20025;-81
2021/05/09 06:41:40;;;;;;;10.48;4.85;;;;;;;;;;5064880;28;20029;-75
2021/05/09 06:44:09;;;;;;;10.07;4.80;;;;;;;;;;5044438;28;20036;-79
2021/05/09 06:46:36;;;;;;;44.80;6.15;;;;;;;;;;5057746;28;20438;-77
2021/05/09 06:49:02;;;;;;;12.50;5.07;;;;;;;;;;5048522;28;20074;-74
2021/05/09 06:51:28;;;;;;;13.60;5.15;;;;;;;;;;5052938;28;20108;-80
2021/05/09 06:53:55;;;;;;;11.43;5.05;;;;;;;;;;5048695;28;20017;-74
2021/05/09 06:56:21;;;;;;;10.27;5.25;;;;;;;;;;5051552;28;20036;-72
2021/05/09 06:58:47;;;;;;;12.30;5.15;;;;;;;;;;5029849;28;20128;-77
2021/05/09 07:01:16;;;;;;;11.98;5.57;;;;;;;;;;5053580;28;20021;-76
2021/05/09 07:03:42;;;;;;;13.35;5.68;;;;;;;;;;5048383;28;20056;-74
2021/05/09 07:06:08;;;;;;;14.27;5.80;;;;;;;;;;5046786;28;20033;-75
2021/05/09 07:08:37;;;;;;;13.23;6.40;;;;;;;;;;5044179;28;20045;-74
2021/05/09 07:11:03;;;;;;;14.05;6.35;;;;;;;;;;5036182;28;20030;-77
2021/05/09 07:13:29;;;;;;;12.52;6.53;;;;;;;;;;5031234;28;20409;-75
2021/05/09 07:15:58;;;;;;;14.90;7.05;;;;;;;;;;5030528;28;20029;-72
2021/05/09 07:18:26;;;;;;;13.52;5.90;;;;;;;;;;5034283;28;20013;-74
2021/05/09 07:20:56;;;;;;;12.68;6.57;;;;;;;;;;5033852;28;20039;-75
2021/05/09 07:23:22;;;;;;;14.98;7.45;;;;;;;;;;5030456;28;20029;-76
2021/05/09 07:25:50;;;;;;;13.15;7.13;;;;;;;;;;5010388;28;20045;-75
2021/05/09 07:28:17;;;;;;;14.02;7.32;;;;;;;;;;5033639;28;20076;-73
2021/05/09 07:30:44;;;;;;;14.68;8.07;;;;;;;;;;5033668;28;20083;-77
2021/05/09 07:33:12;;;;;;;15.05;8.75;;;;;;;;;;5029317;28;20112;-79
2021/05/09 07:35:39;;;;;;;15.10;9.15;;;;;;;;;;5028842;28;20120;-76
2021/05/09 07:38:06;;;;;;;17.80;9.30;;;;;;;;;;5029591;28;20020;-71
2021/05/09 07:43:29;;;;;;;16.48;8.93;;;;;;;;;;5031212;23;20412;-73
2021/05/09 07:45:57;;;;;;;14.95;9.05;;;;;;;;;;5034854;28;20025;-73
2021/05/09 07:48:23;;;;;;;15.55;8.32;;;;;;;;;;5013122;28;20082;-71
2021/05/09 07:50:52;;;;;;;13.98;8.68;;;;;;;;;;5033724;28;20479;-72
2021/05/09 07:53:41;;;;;;;12.90;8.10;;;;;;;;;;5031618;28;20041;-72
2021/05/09 07:56:20;;;;;;;14.32;8.55;;;;;;;;;;5035344;28;20095;-77
2021/05/09 07:58:47;;;;;;;15.45;8.57;;;;;;;;;;5034104;28;20024;-74
2021/05/09 08:01:17;;;;;;;17.25;8.98;;;;;;;;;;5017699;28;20445;-74
2021/05/09 08:03:43;;;;;;;15.95;8.90;;;;;;;;;;5034125;28;20025;-72
2021/05/09 08:06:10;;;;;;;15.73;8.77;;;;;;;;;;5032534;28;20029;-72
2021/05/09 08:08:38;;;;;;;16.05;8.45;;;;;;;;;;5031626;28;20025;-73
2021/05/09 08:11:09;;;;;;;18.17;8.50;;;;;;;;;;5012752;28;20030;-74
2021/05/09 08:13:35;;;;;;;14.65;9.10;;;;;;;;;;5026146;28;20034;-71
2021/05/09 08:16:01;;;;;;;13.32;8.57;;;;;;;;;;5031882;28;20112;-72
2021/05/09 08:18:27;;;;;;;17.67;8.20;;;;;;;;;;5033625;28;20017;-71
2021/05/09 08:21:01;;;;;;;17.65;8.43;;;;;;;;;;5035137;28;20459;-71
2021/05/09 08:23:52;;;;;;;16.63;8.73;;;;;;;;;;5040064;28;20013;-73
2021/05/09 08:26:42;;;;;;;14.32;7.90;;;;;;;;;;5037854;28;20075;-72
2021/05/09 08:29:32;;;;;;;13.55;7.72;;;;;;;;;;5035233;28;20029;-71
2021/05/09 08:32:05;;;;;;;12.93;8.35;;;;;;;;;;5029457;28;20029;-71
2021/05/09 08:34:35;;;;;;;12.40;8.50;;;;;;;;;;5039536;28;20089;-70
2021/05/09 08:37:04;;;;;;;13.50;8.25;;;;;;;;;;5038613;28;20049;-71
2021/05/09 08:39:39;;;;;;;12.32;7.78;;;;;;;;;;5028063;28;20073;-73
2021/05/09 08:42:16;;;;;;;14.20;8.68;;;;;;;;;;5027762;28;20050;-72
2021/05/09 08:44:49;;;;;;;16.77;8.00;;;;;;;;;;5005409;28;20037;-71
2021/05/09 08:47:37;;;;;;;16.33;7.72;;;;;;;;;;5008266;28;20030;-72
2021/05/09 08:50:15;;;;;;;13.02;8.15;;;;;;;;;;5005152;28;20483;-71
2021/05/09 08:52:46;;;;;;;14.05;7.53;;;;;;;;;;5006576;28;20032;-70
2021/05/09 08:55:23;;;;;;;14.75;7.60;;;;;;;;;;5002218;28;20026;-74
2021/05/09 08:57:50;;;;;;;11.20;7.05;;;;;;;;;;4994825;28;20025;-73
2021/05/09 09:00:19;;;;;;;11.73;7.20;;;;;;;;;;5019009;28;20057;-71
2021/05/09 09:02:45;;;;;;;11.55;6.93;;;;;;;;;;5019551;28;20026;-72
2021/05/09 09:05:17;;;;;;;18.25;7.95;;;;;;;;;;5027864;28;20017;-76
2021/05/09 09:07:54;;;;;;;12.13;7.50;;;;;;;;;;5022093;28;20097;-72
2021/05/09 09:10:38;;;;;;;12.52;7.53;;;;;;;;;;5027845;28;20026;-72
2021/05/09 09:13:05;;;;;;;14.57;6.18;;;;;;;;;;5019950;28;20029;-70
2021/05/09 09:15:52;;;;;;;10.95;6.80;;;;;;;;;;5020469;28;20525;-71
2021/05/09 09:18:43;;;;;;;10.55;6.60;;;;;;;;;;5016441;28;20391;-72
2021/05/09 09:21:32;;;;;;;9.48;6.45;;;;;;;;;;5025970;28;20538;-72
2021/05/09 09:24:05;;;;;;;10.20;6.13;;;;;;;;;;5019224;28;20026;-71
2021/05/09 09:26:42;;;;;;;12.73;6.90;;;;;;;;;;4995275;28;20040;-72
2021/05/09 09:29:22;;;;;;;10.95;6.85;;;;;;;;;;5001838;28;20031;-71
2021/05/09 09:31:57;;;;;;;11.40;6.57;;;;;;;;;;5021547;28;20026;-73
2021/05/09 09:34:49;;;;;;;13.05;7.10;;;;;;;;;;5021498;28;20382;-72
2021/05/09 09:37:36;;;;;;;10.55;6.07;;;;;;;;;;4993925;28;20069;-72
2021/05/09 09:40:16;;;;;;;14.82;6.72;;;;;;;;;;5016540;28;20076;-73
2021/05/09 09:42:48;;;;;;;14.93;6.80;;;;;;;;;;4999632;28;20050;-75
2021/05/09 09:45:20;;;;;;;11.73;6.20;;;;;;;;;;4970307;28;20038;-72
2021/05/09 09:47:53;;;;;;;17.10;6.40;;;;;;;;;;4991981;28;20038;-73
2021/05/09 09:50:35;;;;;;;11.98;5.43;;;;;;;;;;4991147;28;20031;-72
2021/05/09 09:53:01;;;;;;;9.43;5.28;;;;;;;;;;4991612;28;20030;-71
2021/05/09 09:55:28;;;;;;;9.18;4.97;;;;;;;;;;4991916;28;20038;-73
2021/05/09 09:58:05;;;;;;;14.18;5.80;;;;;;;;;;4991636;28;20101;-71
2021/05/09 10:00:32;;;;;;;15.63;4.97;;;;;;;;;;4972916;28;20460;-71
2021/05/09 10:02:58;;;;;;;12.10;6.78;;;;;;;;;;4991551;28;20027;-72
2021/05/09 10:05:24;;;;;;;16.58;5.82;;;;;;;;;;4991967;28;20435;-72
2021/05/09 10:07:50;;;;;;;12.32;6.00;;;;;;;;;;4991631;28;20082;-72
2021/05/09 10:10:20;;;;;;;12.82;6.13;;;;;;;;;;4996383;28;20030;-73
2021/05/09 10:12:46;;;;;;;13.75;6.15;;;;;;;;;;4991519;28;20030;-72
2021/05/09 10:15:12;;;;;;;9.05;5.45;;;;;;;;;;4990817;28;20455;-71
2021/05/09 10:17:41;;;;;;;12.48;6.40;;;;;;;;;;4970774;28;20039;-71
2021/05/09 10:20:10;;;;;;;11.65;6.50;;;;;;;;;;4997189;28;20060;-72
2021/05/09 10:22:38;;;;;;;11.30;6.25;;;;;;;;;;4995581;28;20026;-72
2021/05/09 10:25:07;;;;;;;18.20;6.70;;;;;;;;;;4988559;28;20027;-72
2021/05/09 10:27:36;;;;;;;33.65;23.95;;;;;;;;;;4994388;28;20034;-72
2021/05/09 10:30:03;;;;;;;9.55;5.53;;;;;;;;;;4995330;28;20054;-72
2021/05/09 10:32:29;;;;;;;10.70;6.00;;;;;;;;;;4992263;28;20468;-71
2021/05/09 10:35:15;;;;;;;11.05;5.82;;;;;;;;;;5000229;28;20033;-74
2021/05/09 10:37:51;;;;;;;10.30;6.10;;;;;;;;;;4973780;28;20028;-71
2021/05/09 10:40:21;;;;;;;12.88;5.40;;;;;;;;;;4993367;28;20041;-72
2021/05/09 10:42:47;;;;;;;9.60;4.90;;;;;;;;;;5004907;28;20050;-70
2021/05/09 10:45:40;;;;;;;6.90;4.50;;;;;;;;;;5014028;28;20040;-70
2021/05/09 10:48:12;;;;;;;12.32;7.05;;;;;;;;;;5003379;28;20077;-71
2021/05/09 10:50:38;;;;;;;60.15;8.90;;;;;;;;;;5012764;28;20029;-71
2021/05/09 10:53:04;;;;;;;19.75;8.90;;;;;;;;;;5013941;28;20033;-70
2021/05/09 10:55:39;;;;;;;11.88;5.53;;;;;;;;;;5014719;28;20050;-72
2021/05/09 10:58:08;;;;;;;10.55;5.82;;;;;;;;;;5015100;28;20025;-72
2021/05/09 11:00:53;;;;;;;12.23;6.20;;;;;;;;;;5013197;28;20380;-70
2021/05/09 11:03:45;;;;;;;10.27;5.60;;;;;;;;;;5014068;28;20025;-71
2021/05/09 11:06:17;;;;;;;14.40;8.77;;;;;;;;;;4999460;28;20034;-72
2021/05/09 11:08:43;;;;;;;6.47;4.28;;;;;;;;;;5012288;28;20046;-70
2021/05/09 11:11:33;;;;;;;22.98;16.88;;;;;;;;;;5013580;28;20032;-70
2021/05/09 11:13:59;;;;;;;25.73;5.45;;;;;;;;;;4981350;28;20125;-70
2021/05/09 11:16:25;;;;;;;19.77;12.82;;;;;;;;;;5010578;28;20026;-71
2021/05/09 11:19:05;;;;;;;51.33;33.65;;;;;;;;;;5013921;28;20053;-71
2021/05/09 11:21:35;;;;;;;12.02;7.70;;;;;;;;;;5016617;28;20092;-71
2021/05/09 11:24:13;;;;;;;8.10;4.55;;;;;;;;;;5012468;28;20464;-71
2021/05/09 11:26:40;;;;;;;8.50;4.32;;;;;;;;;;5013563;28;20152;-71
2021/05/09 11:29:08;;;;;;;8.52;4.50;;;;;;;;;;5013960;28;20471;-72
2021/05/09 11:31:35;;;;;;;5.90;3.60;;;;;;;;;;5010019;28;20424;-72
2021/05/09 11:34:04;;;;;;;8.20;3.90;;;;;;;;;;5013050;28;20458;-71
2021/05/09 11:36:41;;;;;;;7.05;4.40;;;;;;;;;;5014296;28;20443;-72
2021/05/09 11:39:08;;;;;;;24.25;18.42;;;;;;;;;;5013026;28;20018;-72
2021/05/09 11:41:53;;;;;;;7.07;4.82;;;;;;;;;;5013652;28;20038;-72
2021/05/09 11:44:20;;;;;;;6.57;4.10;;;;;;;;;;5011848;28;20049;-70
2021/05/09 11:46:46;;;;;;;5.40;3.47;;;;;;;;;;5018952;28;20115;-70
2021/05/09 11:49:29;;;;;;;5.53;2.83;;;;;;;;;;5025145;28;20013;-73
2021/05/09 11:51:55;;;;;;;;;;;;;;;;;;5013715;28;20040;-72
2021/05/09 11:54:23;;;;;;;5.80;3.30;;;;;;;;;;5013343;28;19933;-72
2021/05/09 11:57:05;;;;;;;7.22;3.80;;;;;;;;;;5013586;28;20029;-70
2021/05/09 11:59:33;;;;;;;5.55;3.63;;;;;;;;;;5013215;28;20088;-70
2021/05/09 12:02:00;;;;;;;7.53;3.20;;;;;;;;;;5013347;28;20022;-72
2021/05/09 12:04:30;;;;;;;6.10;3.10;;;;;;;;;;5013631;28;20025;-71
2021/05/09 12:07:05;;;;;;;4.93;3.22;;;;;;;;;;5000733;28;20057;-73
2021/05/09 12:09:31;;;;;;;3.72;2.90;;;;;;;;;;5002987;28;20018;-72
2021/05/09 12:11:58;;;;;;;5.53;3.65;;;;;;;;;;5014446;28;20036;-71
2021/05/09 12:14:28;;;;;;;5.90;3.30;;;;;;;;;;5012979;28;20089;-72
2021/05/09 12:16:55;;;;;;;5.53;3.20;;;;;;;;;;5015349;28;20036;-70
2021/05/09 12:19:29;;;;;;;7.30;3.90;;;;;;;;;;5011901;28;20531;-72
2021/05/09 12:21:59;;;;;;;11.70;3.95;;;;;;;;;;5012718;28;20038;-71
2021/05/09 12:24:25;;;;;;;9.20;3.65;;;;;;;;;;5013475;28;20037;-72
2021/05/09 12:26:58;;;;;;;10.48;3.53;;;;;;;;;;4992865;28;20503;-71
2021/05/09 12:29:24;;;;;;;;;;;;;;;;;;5013212;28;20044;-73
2021/05/09 12:31:54;;;;;;;4.45;2.90;;;;;;;;;;5020450;28;19909;-71
2021/05/09 12:34:29;;;;;;;4.30;3.03;;;;;;;;;;5013760;28;20034;-72
2021/05/09 12:37:10;;;;;;;6.40;4.35;;;;;;;;;;4994134;28;20040;-71
2021/05/09 12:39:36;;;;;;;5.40;3.47;;;;;;;;;;5010064;28;20479;-71
2021/05/09 12:42:02;;;;;;;6.13;3.70;;;;;;;;;;5011466;28;20054;-69
2021/05/09 12:44:30;;;;;;;8.70;4.40;;;;;;;;;;5009111;28;20062;-72
2021/05/09 12:47:01;;;;;;;6.45;3.40;;;;;;;;;;5012488;28;20037;-71
2021/05/09 12:49:29;;;;;;;6.25;3.20;;;;;;;;;;5012636;28;20044;-71
2021/05/09 12:52:05;;;;;;;5.93;3.60;;;;;;;;;;5007795;28;20041;-71
2021/05/09 12:54:34;;;;;;;6.80;4.78;;;;;;;;;;5000675;28;20030;-71
2021/05/09 12:57:21;;;;;;;7.63;4.40;;;;;;;;;;5012905;28;20021;-70
2021/05/09 12:59:52;;;;;;;6.25;3.53;;;;;;;;;;5012141;28;20030;-72
2021/05/09 13:02:18;;;;;;;8.18;3.50;;;;;;;;;;5008694;28;20026;-72
2021/05/09 13:05:13;;;;;;;;;;;;;;;;;;;;;
2021/05/09 13:07:42;;;;;;;5.55;3.40;;;;;;;;;;5008849;28;20486;-72
2021/05/09 13:10:08;;;;;;;5.53;3.63;;;;;;;;;;5004402;28;20022;-74
2021/05/09 13:12:39;;;;;;;6.90;3.97;;;;;;;;;;5010236;28;21629;-72
2021/05/09 13:15:12;;;;;;;4.60;3.25;;;;;;;;;;5006059;28;20392;-71
2021/05/09 13:17:39;;;;;;;4.72;3.25;;;;;;;;;;5009246;28;20470;-72
2021/05/09 13:20:13;;;;;;;6.43;2.95;;;;;;;;;;5003476;28;20054;-72
2021/05/09 13:22:42;;;;;;;7.03;4.40;;;;;;;;;;5006167;28;20042;-74
2021/05/09 13:25:16;;;;;;;5.70;3.25;;;;;;;;;;5001277;28;20117;-72
2021/05/09 13:27:43;;;;;;;7.75;3.70;;;;;;;;;;5009935;28;20533;-72
2021/05/09 13:30:25;;;;;;;6.68;3.97;;;;;;;;;;5005817;28;20502;-71
2021/05/09 13:32:57;;;;;;;13.30;3.60;;;;;;;;;;5004382;28;20061;-71
2021/05/09 13:35:27;;;;;;;5.00;3.10;;;;;;;;;;5009843;28;20021;-72
2021/05/09 13:38:01;;;;;;;4.97;3.55;;;;;;;;;;5010497;28;20042;-72
2021/05/09 13:40:28;;;;;;;5.70;3.60;;;;;;;;;;5007703;28;20225;-72
2021/05/09 13:43:05;;;;;;;5.20;3.03;;;;;;;;;;5009738;28;20042;-72
2021/05/09 13:45:34;;;;;;;4.72;2.60;;;;;;;;;;5011321;28;20030;-72
2021/05/09 13:48:08;;;;;;;5.18;3.00;;;;;;;;;;5007009;28;20038;-72
2021/05/09 13:50:37;;;;;;;7.63;2.60;;;;;;;;;;5006973;28;20041;-72
2021/05/09 13:53:06;;;;;;;6.72;3.17;;;;;;;;;;5011911;28;20033;-72
2021/05/09 13:55:32;;;;;;;6.53;3.38;;;;;;;;;;4986264;28;20042;-72
2021/05/09 13:58:06;;;;;;;8.52;3.03;;;;;;;;;;4976507;28;20046;-72
2021/05/09 14:00:37;;;;;;;7.10;3.40;;;;;;;;;;4971349;28;20128;-72
2021/05/09 14:03:09;;;;;;;4.47;3.10;;;;;;;;;;4991778;28;20039;-72
2021/05/09 14:05:35;;;;;;;5.35;3.20;;;;;;;;;;4990411;28;20034;-72
2021/05/09 14:08:03;;;;;;;10.73;3.80;;;;;;;;;;4985412;28;20057;-70
2021/05/09 14:10:34;;;;;;;4.10;2.70;;;;;;;;;;4989150;28;20452;-70
2021/05/09 14:13:04;;;;;;;5.38;2.95;;;;;;;;;;4971790;28;20134;-71
2021/05/09 14:15:42;;;;;;;7.10;3.50;;;;;;;;;;4988965;28;20066;-71
2021/05/09 14:18:08;;;;;;;6.38;2.90;;;;;;;;;;4988594;28;20039;-72
2021/05/09 14:20:40;;;;;;;8.95;4.43;;;;;;;;;;5005549;28;20133;-74
2021/05/09 14:23:07;;;;;;;4.47;2.60;;;;;;;;;;5012047;28;20033;-72
2021/05/09 14:25:42;;;;;;;6.45;2.50;;;;;;;;;;5014125;28;20112;-73
2021/05/09 14:28:11;;;;;;;7.05;2.78;;;;;;;;;;5014082;28;20046;-73
2021/05/09 14:30:40;;;;;;;16.42;3.78;;;;;;;;;;5012138;28;20109;-71
2021/05/09 14:33:06;;;;;;;4.70;2.60;;;;;;;;;;5012363;28;20109;-72
2021/05/09 14:35:40;;;;;;;7.18;2.50;;;;;;;;;;5011604;28;20030;-73
2021/05/09 14:38:12;;;;;;;5.20;2.63;;;;;;;;;;5005017;28;20034;-72
2021/05/09 14:40:38;;;;;;;4.32;2.63;;;;;;;;;;5013906;28;20402;-72
2021/05/09 14:43:30;;;;;;;4.10;2.70;;;;;;;;;;5012246;28;20056;-72
2021/05/09 14:45:56;;;;;;;5.60;2.83;;;;;;;;;;5012527;28;20026;-73
2021/05/09 14:48:50;;;;;;;4.30;2.65;;;;;;;;;;5013796;28;20479;-74